sensor_id;sensor_type;location;lat;lon;timestamp;P1;durP1;ratioP1;P2;durP2;ratioP2
69795;SDS011;57073;45.650;9.612;2023-03-26T00:03:43;2.60;;;1.43;;
69795;SDS011;57073;45.650;9.612;2023-03-26T00:08:47;3.33;;;1.60;;
69795;SDS011;57073;45.650;9.612;2023-03-26T00:13:49;3.22;;;1.60;;
69795;SDS011;57073;45.650;9.612;2023-03-26T00:18:52;3.47;;;1.80;;
69795;SDS011;57073;45.650;9.612;2023-03-26T00:23:57;3.33;;;0.97;;
69795;SDS011;57073;45.650;9.612;2023-03-26T00:29:03;5.10;;;1.60;;
69795;SDS011;57073;45.650;9.612;2023-03-26T00:34:05;2.80;;;1.60;;
69795;SDS011;57073;45.650;9.612;2023-03-26T00:39:06;3.77;;;1.83;;
69795;SDS011;57073;45.650;9.612;2023-03-26T00:44:06;4.60;;;1.77;;
69795;SDS011;57073;45.650;9.612;2023-03-26T00:49:06;3.73;;;1.57;;
69795;SDS011;57073;45.650;9.612;2023-03-26T00:54:09;4.73;;;1.60;;
69795;SDS011;57073;45.650;9.612;2023-03-26T00:59:09;3.43;;;2.23;;
69795;SDS011;57073;45.650;9.612;2023-03-26T01:09:44;5.90;;;3.07;;
69795;SDS011;57073;45.650;9.612;2023-03-26T01:14:49;6.60;;;3.47;;
69795;SDS011;57073;45.650;9.612;2023-03-26T01:19:53;6.68;;;4.10;;
69795;SDS011;57073;45.650;9.612;2023-03-26T01:25:11;8.40;;;4.50;;
69795;SDS011;57073;45.650;9.612;2023-03-26T01:40:35;8.67;;;4.80;;
69795;SDS011;57073;45.650;9.612;2023-03-26T01:45:46;9.02;;;5.05;;
69795;SDS011;57073;45.650;9.612;2023-03-26T01:50:48;8.80;;;5.10;;
69795;SDS011;57073;45.650;9.612;2023-03-26T01:55:53;8.43;;;4.97;;
69795;SDS011;57073;45.650;9.612;2023-03-26T02:01:16;7.90;;;5.07;;
69795;SDS011;57073;45.650;9.612;2023-03-26T02:06:31;9.53;;;5.20;;
69795;SDS011;57073;45.650;9.612;2023-03-26T02:11:38;8.40;;;4.82;;
69795;SDS011;57073;45.650;9.612;2023-03-26T02:16:40;9.33;;;5.47;;
69795;SDS011;57073;45.650;9.612;2023-03-26T02:21:40;9.25;;;5.60;;
69795;SDS011;57073;45.650;9.612;2023-03-26T02:26:41;10.63;;;5.33;;
69795;SDS011;57073;45.650;9.612;2023-03-26T02:31:41;11.10;;;5.20;;
69795;SDS011;57073;45.650;9.612;2023-03-26T02:36:42;7.67;;;4.67;;
69795;SDS011;57073;45.650;9.612;2023-03-26T02:41:42;8.27;;;4.67;;
69795;SDS011;57073;45.650;9.612;2023-03-26T02:46:42;8.70;;;5.00;;
69795;SDS011;57073;45.650;9.612;2023-03-26T02:51:43;8.70;;;4.93;;
69795;SDS011;57073;45.650;9.612;2023-03-26T02:56:43;8.30;;;4.97;;
69795;SDS011;57073;45.650;9.612;2023-03-26T03:01:44;8.27;;;4.60;;
69795;SDS011;57073;45.650;9.612;2023-03-26T03:06:44;9.53;;;4.87;;
69795;SDS011;57073;45.650;9.612;2023-03-26T03:11:44;9.50;;;4.97;;
69795;SDS011;57073;45.650;9.612;2023-03-26T03:16:45;8.68;;;5.25;;
69795;SDS011;57073;45.650;9.612;2023-03-26T03:21:45;13.03;;;7.37;;
69795;SDS011;57073;45.650;9.612;2023-03-26T03:26:46;16.80;;;7.97;;
69795;SDS011;57073;45.650;9.612;2023-03-26T03:31:46;18.90;;;8.33;;
69795;SDS011;57073;45.650;9.612;2023-03-26T03:36:46;16.63;;;8.97;;
69795;SDS011;57073;45.650;9.612;2023-03-26T03:41:47;20.60;;;9.27;;
69795;SDS011;57073;45.650;9.612;2023-03-26T03:46:49;16.97;;;9.17;;
69795;SDS011;57073;45.650;9.612;2023-03-26T03:51:52;17.23;;;9.60;;
69795;SDS011;57073;45.650;9.612;2023-03-26T03:56:53;15.30;;;9.57;;
69795;SDS011;57073;45.650;9.612;2023-03-26T04:01:53;18.63;;;9.97;;
69795;SDS011;57073;45.650;9.612;2023-03-26T04:06:53;19.20;;;10.57;;
69795;SDS011;57073;45.650;9.612;2023-03-26T04:11:54;22.77;;;11.00;;
69795;SDS011;57073;45.650;9.612;2023-03-26T04:16:55;21.83;;;11.80;;
69795;SDS011;57073;45.650;9.612;2023-03-26T04:21:55;18.30;;;10.80;;
69795;SDS011;57073;45.650;9.612;2023-03-26T04:27:01;18.37;;;10.73;;
69795;SDS011;57073;45.650;9.612;2023-03-26T04:32:01;19.83;;;11.57;;
69795;SDS011;57073;45.650;9.612;2023-03-26T04:37:05;15.13;;;9.55;;
69795;SDS011;57073;45.650;9.612;2023-03-26T04:42:06;16.77;;;9.47;;
69795;SDS011;57073;45.650;9.612;2023-03-26T04:47:08;15.10;;;9.33;;
69795;SDS011;57073;45.650;9.612;2023-03-26T04:52:09;15.13;;;8.93;;
69795;SDS011;57073;45.650;9.612;2023-03-26T04:57:14;14.18;;;8.25;;
69795;SDS011;57073;45.650;9.612;2023-03-26T05:02:16;16.80;;;9.43;;
69795;SDS011;57073;45.650;9.612;2023-03-26T05:07:20;16.40;;;8.67;;
69795;SDS011;57073;45.650;9.612;2023-03-26T05:12:24;16.42;;;8.98;;
69795;SDS011;57073;45.650;9.612;2023-03-26T05:17:24;13.57;;;8.70;;
69795;SDS011;57073;45.650;9.612;2023-03-26T05:22:25;15.93;;;8.30;;
69795;SDS011;57073;45.650;9.612;2023-03-26T05:27:26;15.90;;;8.83;;
69795;SDS011;57073;45.650;9.612;2023-03-26T05:32:26;14.83;;;8.33;;
69795;SDS011;57073;45.650;9.612;2023-03-26T05:37:27;15.17;;;8.73;;
69795;SDS011;57073;45.650;9.612;2023-03-26T05:42:29;14.35;;;8.48;;
69795;SDS011;57073;45.650;9.612;2023-03-26T05:47:30;16.37;;;7.63;;
69795;SDS011;57073;45.650;9.612;2023-03-26T05:52:31;13.37;;;7.30;;
69795;SDS011;57073;45.650;9.612;2023-03-26T05:57:31;13.87;;;7.20;;
69795;SDS011;57073;45.650;9.612;2023-03-26T06:02:32;12.20;;;6.83;;
69795;SDS011;57073;45.650;9.612;2023-03-26T06:07:32;12.73;;;6.17;;
69795;SDS011;57073;45.650;9.612;2023-03-26T06:12:33;11.13;;;6.50;;
69795;SDS011;57073;45.650;9.612;2023-03-26T06:17:33;10.10;;;6.40;;
69795;SDS011;57073;45.650;9.612;2023-03-26T06:22:33;10.10;;;6.30;;
69795;SDS011;57073;45.650;9.612;2023-03-26T06:27:33;10.75;;;6.20;;
69795;SDS011;57073;45.650;9.612;2023-03-26T06:32:34;13.25;;;6.45;;
69795;SDS011;57073;45.650;9.612;2023-03-26T06:37:34;12.00;;;6.37;;
69795;SDS011;57073;45.650;9.612;2023-03-26T06:42:35;9.57;;;5.23;;
69795;SDS011;57073;45.650;9.612;2023-03-26T06:47:35;10.13;;;5.83;;
69795;SDS011;57073;45.650;9.612;2023-03-26T06:52:36;8.13;;;5.00;;
69795;SDS011;57073;45.650;9.612;2023-03-26T06:57:36;10.07;;;5.40;;
69795;SDS011;57073;45.650;9.612;2023-03-26T07:02:37;10.07;;;5.53;;
69795;SDS011;57073;45.650;9.612;2023-03-26T07:07:37;8.13;;;5.17;;
69795;SDS011;57073;45.650;9.612;2023-03-26T07:12:38;9.10;;;5.47;;
69795;SDS011;57073;45.650;9.612;2023-03-26T07:17:38;9.23;;;5.90;;
69795;SDS011;57073;45.650;9.612;2023-03-26T07:22:39;11.77;;;5.60;;
69795;SDS011;57073;45.650;9.612;2023-03-26T07:49:13;9.30;;;5.87;;
69795;SDS011;57073;45.650;9.612;2023-03-26T07:54:16;9.68;;;5.75;;
69795;SDS011;57073;45.650;9.612;2023-03-26T08:04:48;8.65;;;5.85;;
69795;SDS011;57073;45.650;9.612;2023-03-26T08:10:14;10.53;;;6.70;;
69795;SDS011;57073;45.650;9.612;2023-03-26T08:30:58;11.27;;;6.93;;
69795;SDS011;57073;45.650;9.612;2023-03-26T08:36:01;12.18;;;7.20;;
69795;SDS011;57073;45.650;9.612;2023-03-26T08:46:35;9.47;;;6.87;;
69795;SDS011;57073;45.650;9.612;2023-03-26T09:18:06;14.20;;;8.93;;
69795;SDS011;57073;45.650;9.612;2023-03-26T10:06:29;14.45;;;8.20;;
69795;SDS011;57073;45.650;9.612;2023-03-26T10:11:39;12.88;;;7.25;;
69795;SDS011;57073;45.650;9.612;2023-03-26T10:54:35;11.00;;;6.87;;
69795;SDS011;57073;45.650;9.612;2023-03-26T10:59:38;11.82;;;7.85;;
69795;SDS011;57073;45.650;9.612;2023-03-26T11:04:42;13.33;;;7.00;;
69795;SDS011;57073;45.650;9.612;2023-03-26T11:09:53;11.30;;;7.30;;
69795;SDS011;57073;45.650;9.612;2023-03-26T11:25:37;11.55;;;7.13;;
69795;SDS011;57073;45.650;9.612;2023-03-26T11:35:54;12.20;;;7.47;;
69795;SDS011;57073;45.650;9.612;2023-03-26T11:41:00;15.75;;;7.45;;
69795;SDS011;57073;45.650;9.612;2023-03-26T11:46:07;10.98;;;7.03;;
69795;SDS011;57073;45.650;9.612;2023-03-26T11:51:19;10.83;;;6.40;;
69795;SDS011;57073;45.650;9.612;2023-03-26T11:56:32;12.05;;;6.63;;
69795;SDS011;57073;45.650;9.612;2023-03-26T12:01:41;10.20;;;6.38;;
69795;SDS011;57073;45.650;9.612;2023-03-26T12:07:43;10.57;;;6.33;;
69795;SDS011;57073;45.650;9.612;2023-03-26T12:12:35;12.43;;;6.30;;
69795;SDS011;57073;45.650;9.612;2023-03-26T12:17:38;10.27;;;6.63;;
69795;SDS011;57073;45.650;9.612;2023-03-26T12:22:39;13.33;;;6.00;;
69795;SDS011;57073;45.650;9.612;2023-03-26T12:27:46;10.70;;;5.87;;
69795;SDS011;57073;45.650;9.612;2023-03-26T12:32:49;12.80;;;6.13;;
69795;SDS011;57073;45.650;9.612;2023-03-26T12:37:50;9.95;;;6.43;;
69795;SDS011;57073;45.650;9.612;2023-03-26T12:42:59;10.60;;;6.50;;
69795;SDS011;57073;45.650;9.612;2023-03-26T12:48:01;10.57;;;6.45;;
69795;SDS011;57073;45.650;9.612;2023-03-26T12:58:21;9.20;;;6.20;;
69795;SDS011;57073;45.650;9.612;2023-03-26T13:08:49;12.53;;;6.77;;
69795;SDS011;57073;45.650;9.612;2023-03-26T13:19:31;11.60;;;7.13;;
69795;SDS011;57073;45.650;9.612;2023-03-26T13:50:58;14.05;;;8.32;;
69795;SDS011;57073;45.650;9.612;2023-03-26T13:56:12;14.93;;;7.75;;
69795;SDS011;57073;45.650;9.612;2023-03-26T14:01:20;13.33;;;7.10;;
69795;SDS011;57073;45.650;9.612;2023-03-26T14:16:58;8.63;;;5.20;;
69795;SDS011;57073;45.650;9.612;2023-03-26T14:22:16;9.73;;;4.70;;
69795;SDS011;57073;45.650;9.612;2023-03-26T14:32:25;10.10;;;4.38;;
69795;SDS011;57073;45.650;9.612;2023-03-26T14:53:49;5.40;;;2.28;;
69795;SDS011;57073;45.650;9.612;2023-03-26T15:31:21;2.90;;;1.40;;
69795;SDS011;57073;45.650;9.612;2023-03-26T15:36:52;2.40;;;1.20;;
69795;SDS011;57073;45.650;9.612;2023-03-26T15:42:22;2.07;;;1.00;;
69795;SDS011;57073;45.650;9.612;2023-03-26T15:47:42;2.33;;;1.00;;
69795;SDS011;57073;45.650;9.612;2023-03-26T16:15:12;2.67;;;1.00;;
69795;SDS011;57073;45.650;9.612;2023-03-26T16:20:33;2.40;;;1.35;;
69795;SDS011;57073;45.650;9.612;2023-03-26T16:46:57;4.23;;;2.20;;
69795;SDS011;57073;45.650;9.612;2023-03-26T16:52:14;5.00;;;2.38;;
69795;SDS011;57073;45.650;9.612;2023-03-26T16:57:43;5.45;;;2.28;;
69795;SDS011;57073;45.650;9.612;2023-03-26T17:03:16;4.10;;;2.13;;
69795;SDS011;57073;45.650;9.612;2023-03-26T17:29:50;5.78;;;3.55;;
69795;SDS011;57073;45.650;9.612;2023-03-26T17:35:06;7.17;;;4.63;;
69795;SDS011;57073;45.650;9.612;2023-03-26T17:45:43;3.60;;;2.55;;
69795;SDS011;57073;45.650;9.612;2023-03-26T17:50:50;5.57;;;2.75;;
69795;SDS011;57073;45.650;9.612;2023-03-26T17:55:54;4.83;;;3.70;;
69795;SDS011;57073;45.650;9.612;2023-03-26T18:01:21;7.00;;;4.28;;
69795;SDS011;57073;45.650;9.612;2023-03-26T18:06:36;6.53;;;3.63;;
69795;SDS011;57073;45.650;9.612;2023-03-26T18:17:11;7.80;;;4.72;;
69795;SDS011;57073;45.650;9.612;2023-03-26T18:22:14;6.40;;;4.13;;
69795;SDS011;57073;45.650;9.612;2023-03-26T18:27:19;4.97;;;2.90;;
69795;SDS011;57073;45.650;9.612;2023-03-26T18:32:22;5.22;;;3.30;;
69795;SDS011;57073;45.650;9.612;2023-03-26T18:42:32;5.38;;;3.28;;
69795;SDS011;57073;45.650;9.612;2023-03-26T18:47:32;6.00;;;3.13;;
69795;SDS011;57073;45.650;9.612;2023-03-26T18:52:35;5.57;;;3.22;;
69795;SDS011;57073;45.650;9.612;2023-03-26T18:57:35;5.50;;;3.10;;
69795;SDS011;57073;45.650;9.612;2023-03-26T19:02:36;6.07;;;2.70;;
69795;SDS011;57073;45.650;9.612;2023-03-26T19:07:37;5.83;;;2.77;;
69795;SDS011;57073;45.650;9.612;2023-03-26T19:12:38;5.13;;;2.80;;
69795;SDS011;57073;45.650;9.612;2023-03-26T19:17:39;5.10;;;2.80;;
69795;SDS011;57073;45.650;9.612;2023-03-26T19:22:43;5.60;;;2.45;;
69795;SDS011;57073;45.650;9.612;2023-03-26T19:27:45;6.83;;;2.80;;
69795;SDS011;57073;45.650;9.612;2023-03-26T19:32:51;4.37;;;2.90;;
69795;SDS011;57073;45.650;9.612;2023-03-26T19:37:52;5.40;;;2.50;;
69795;SDS011;57073;45.650;9.612;2023-03-26T19:42:53;4.80;;;2.40;;
69795;SDS011;57073;45.650;9.612;2023-03-26T19:47:53;4.27;;;2.50;;
69795;SDS011;57073;45.650;9.612;2023-03-26T19:53:13;4.30;;;2.40;;
69795;SDS011;57073;45.650;9.612;2023-03-26T19:58:26;6.03;;;2.60;;
69795;SDS011;57073;45.650;9.612;2023-03-26T20:03:27;4.17;;;2.40;;
69795;SDS011;57073;45.650;9.612;2023-03-26T20:08:35;7.03;;;2.20;;
69795;SDS011;57073;45.650;9.612;2023-03-26T20:13:36;4.80;;;2.70;;
69795;SDS011;57073;45.650;9.612;2023-03-26T20:18:36;4.17;;;2.37;;
69795;SDS011;57073;45.650;9.612;2023-03-26T20:23:38;6.50;;;2.58;;
69795;SDS011;57073;45.650;9.612;2023-03-26T20:28:39;3.13;;;2.20;;
69795;SDS011;57073;45.650;9.612;2023-03-26T20:33:41;4.38;;;2.60;;
69795;SDS011;57073;45.650;9.612;2023-03-26T20:38:42;5.53;;;2.60;;
69795;SDS011;57073;45.650;9.612;2023-03-26T20:43:44;3.85;;;2.42;;
69795;SDS011;57073;45.650;9.612;2023-03-26T20:48:44;4.87;;;2.20;;
69795;SDS011;57073;45.650;9.612;2023-03-26T20:53:46;4.68;;;2.30;;
69795;SDS011;57073;45.650;9.612;2023-03-26T20:58:47;6.13;;;2.70;;
69795;SDS011;57073;45.650;9.612;2023-03-26T21:03:56;5.10;;;2.93;;
69795;SDS011;57073;45.650;9.612;2023-03-26T21:08:57;7.40;;;3.20;;
69795;SDS011;57073;45.650;9.612;2023-03-26T21:13:59;8.45;;;4.32;;
69795;SDS011;57073;45.650;9.612;2023-03-26T21:19:07;7.20;;;3.80;;
69795;SDS011;57073;45.650;9.612;2023-03-26T21:24:12;7.70;;;3.60;;
69795;SDS011;57073;45.650;9.612;2023-03-26T21:29:19;6.97;;;3.70;;
69795;SDS011;57073;45.650;9.612;2023-03-26T21:34:21;8.55;;;3.78;;
69795;SDS011;57073;45.650;9.612;2023-03-26T21:39:21;7.07;;;3.70;;
69795;SDS011;57073;45.650;9.612;2023-03-26T21:44:23;8.33;;;3.67;;
69795;SDS011;57073;45.650;9.612;2023-03-26T21:49:24;5.90;;;3.40;;
69795;SDS011;57073;45.650;9.612;2023-03-26T21:54:29;7.33;;;3.90;;
69795;SDS011;57073;45.650;9.612;2023-03-26T22:10:11;6.88;;;3.90;;
69795;SDS011;57073;45.650;9.612;2023-03-26T22:15:20;6.50;;;3.34;;
69795;SDS011;57073;45.650;9.612;2023-03-26T22:20:21;5.67;;;3.10;;
69795;SDS011;57073;45.650;9.612;2023-03-26T22:25:23;6.97;;;2.93;;
69795;SDS011;57073;45.650;9.612;2023-03-26T22:30:24;4.60;;;2.80;;
69795;SDS011;57073;45.650;9.612;2023-03-26T22:35:24;4.43;;;2.43;;
69795;SDS011;57073;45.650;9.612;2023-03-26T22:40:25;4.28;;;2.33;;
69795;SDS011;57073;45.650;9.612;2023-03-26T22:45:25;6.07;;;2.50;;
69795;SDS011;57073;45.650;9.612;2023-03-26T22:50:26;6.63;;;2.70;;
69795;SDS011;57073;45.650;9.612;2023-03-26T22:55:27;4.83;;;2.80;;
69795;SDS011;57073;45.650;9.612;2023-03-26T23:00:27;6.22;;;3.30;;
69795;SDS011;57073;45.650;9.612;2023-03-26T23:05:28;7.63;;;3.20;;
69795;SDS011;57073;45.650;9.612;2023-03-26T23:10:28;5.67;;;2.90;;
69795;SDS011;57073;45.650;9.612;2023-03-26T23:15:29;6.20;;;2.73;;
69795;SDS011;57073;45.650;9.612;2023-03-26T23:20:29;6.40;;;2.30;;
69795;SDS011;57073;45.650;9.612;2023-03-26T23:25:36;6.00;;;2.50;;
69795;SDS011;57073;45.650;9.612;2023-03-26T23:30:36;4.50;;;2.57;;
69795;SDS011;57073;45.650;9.612;2023-03-26T23:35:37;4.67;;;2.43;;
69795;SDS011;57073;45.650;9.612;2023-03-26T23:40:38;3.93;;;2.30;;
69795;SDS011;57073;45.650;9.612;2023-03-26T23:45:41;4.33;;;2.00;;
69795;SDS011;57073;45.650;9.612;2023-03-26T23:50:43;4.03;;;1.80;;
69795;SDS011;57073;45.650;9.612;2023-03-26T23:55:49;3.50;;;1.90;;
